sensor_id;sensor_type;location;lat;lon;timestamp;P1;durP1;ratioP1;P2;durP2;ratioP2
21243;SDS011;10780;50.942;4.028;2023-04-24T00:01:15;22.48;;;13.80;;
21243;SDS011;10780;50.942;4.028;2023-04-24T00:03:42;24.60;;;14.20;;
21243;SDS011;10780;50.942;4.028;2023-04-24T00:06:07;25.23;;;13.93;;
21243;SDS011;10780;50.942;4.028;2023-04-24T00:08:34;21.33;;;13.25;;
21243;SDS011;10780;50.942;4.028;2023-04-24T00:11:00;24.00;;;13.88;;
21243;SDS011;10780;50.942;4.028;2023-04-24T00:13:26;21.95;;;14.05;;
21243;SDS011;10780;50.942;4.028;2023-04-24T00:15:53;22.85;;;13.00;;
21243;SDS011;10780;50.942;4.028;2023-04-24T00:18:19;25.23;;;13.32;;
21243;SDS011;10780;50.942;4.028;2023-04-24T00:20:45;24.35;;;13.60;;
21243;SDS011;10780;50.942;4.028;2023-04-24T00:23:11;24.25;;;14.88;;
21243;SDS011;10780;50.942;4.028;2023-04-24T00:25:37;24.02;;;13.55;;
21243;SDS011;10780;50.942;4.028;2023-04-24T00:28:03;22.48;;;13.27;;
21243;SDS011;10780;50.942;4.028;2023-04-24T00:30:29;23.73;;;13.45;;
21243;SDS011;10780;50.942;4.028;2023-04-24T00:32:55;24.38;;;13.63;;
21243;SDS011;10780;50.942;4.028;2023-04-24T00:35:20;21.92;;;13.82;;
21243;SDS011;10780;50.942;4.028;2023-04-24T00:37:46;20.05;;;13.95;;
21243;SDS011;10780;50.942;4.028;2023-04-24T00:40:12;23.85;;;14.25;;
21243;SDS011;10780;50.942;4.028;2023-04-24T00:42:38;20.85;;;13.70;;
21243;SDS011;10780;50.942;4.028;2023-04-24T00:45:05;23.90;;;13.90;;
21243;SDS011;10780;50.942;4.028;2023-04-24T00:47:32;25.15;;;14.15;;
21243;SDS011;10780;50.942;4.028;2023-04-24T00:49:58;23.77;;;13.85;;
21243;SDS011;10780;50.942;4.028;2023-04-24T00:52:25;18.48;;;12.23;;
21243;SDS011;10780;50.942;4.028;2023-04-24T00:54:51;20.00;;;13.07;;
21243;SDS011;10780;50.942;4.028;2023-04-24T00:57:17;22.45;;;13.20;;
21243;SDS011;10780;50.942;4.028;2023-04-24T00:59:43;21.17;;;12.55;;
21243;SDS011;10780;50.942;4.028;2023-04-24T01:02:09;21.15;;;11.82;;
21243;SDS011;10780;50.942;4.028;2023-04-24T01:04:36;17.55;;;11.82;;
21243;SDS011;10780;50.942;4.028;2023-04-24T01:07:02;18.70;;;11.88;;
21243;SDS011;10780;50.942;4.028;2023-04-24T01:09:29;18.98;;;11.65;;
21243;SDS011;10780;50.942;4.028;2023-04-24T01:11:55;17.60;;;12.65;;
21243;SDS011;10780;50.942;4.028;2023-04-24T01:14:21;17.92;;;11.07;;
21243;SDS011;10780;50.942;4.028;2023-04-24T01:16:47;16.30;;;10.15;;
21243;SDS011;10780;50.942;4.028;2023-04-24T01:19:13;21.05;;;11.30;;
21243;SDS011;10780;50.942;4.028;2023-04-24T01:21:40;12.98;;;9.35;;
21243;SDS011;10780;50.942;4.028;2023-04-24T01:24:08;13.65;;;9.82;;
21243;SDS011;10780;50.942;4.028;2023-04-24T01:26:33;14.18;;;8.77;;
21243;SDS011;10780;50.942;4.028;2023-04-24T01:28:59;12.93;;;8.43;;
21243;SDS011;10780;50.942;4.028;2023-04-24T01:31:25;13.40;;;8.13;;
21243;SDS011;10780;50.942;4.028;2023-04-24T01:33:51;13.70;;;8.82;;
21243;SDS011;10780;50.942;4.028;2023-04-24T01:36:17;11.93;;;7.85;;
21243;SDS011;10780;50.942;4.028;2023-04-24T01:38:43;11.35;;;7.90;;
21243;SDS011;10780;50.942;4.028;2023-04-24T01:41:09;10.90;;;7.00;;
21243;SDS011;10780;50.942;4.028;2023-04-24T01:43:35;9.13;;;6.80;;
21243;SDS011;10780;50.942;4.028;2023-04-24T01:46:01;10.65;;;6.60;;
21243;SDS011;10780;50.942;4.028;2023-04-24T01:48:27;9.63;;;7.32;;
21243;SDS011;10780;50.942;4.028;2023-04-24T01:50:53;9.65;;;7.75;;
21243;SDS011;10780;50.942;4.028;2023-04-24T01:53:18;10.23;;;7.60;;
21243;SDS011;10780;50.942;4.028;2023-04-24T01:55:44;13.70;;;8.63;;
21243;SDS011;10780;50.942;4.028;2023-04-24T01:58:10;13.52;;;8.65;;
21243;SDS011;10780;50.942;4.028;2023-04-24T02:00:35;15.18;;;9.57;;
21243;SDS011;10780;50.942;4.028;2023-04-24T02:03:01;14.52;;;9.75;;
21243;SDS011;10780;50.942;4.028;2023-04-24T02:05:27;15.18;;;10.60;;
21243;SDS011;10780;50.942;4.028;2023-04-24T02:07:53;15.82;;;10.63;;
21243;SDS011;10780;50.942;4.028;2023-04-24T02:10:19;17.10;;;11.00;;
21243;SDS011;10780;50.942;4.028;2023-04-24T02:12:44;17.35;;;10.95;;
21243;SDS011;10780;50.942;4.028;2023-04-24T02:15:10;18.77;;;11.63;;
21243;SDS011;10780;50.942;4.028;2023-04-24T02:17:37;17.58;;;11.82;;
21243;SDS011;10780;50.942;4.028;2023-04-24T02:20:03;17.58;;;11.95;;
21243;SDS011;10780;50.942;4.028;2023-04-24T02:22:29;19.90;;;12.25;;
21243;SDS011;10780;50.942;4.028;2023-04-24T02:24:55;19.98;;;11.82;;
21243;SDS011;10780;50.942;4.028;2023-04-24T02:27:21;18.23;;;12.07;;
21243;SDS011;10780;50.942;4.028;2023-04-24T02:29:46;19.38;;;11.90;;
21243;SDS011;10780;50.942;4.028;2023-04-24T02:32:12;17.30;;;11.02;;
21243;SDS011;10780;50.942;4.028;2023-04-24T02:34:40;19.27;;;11.88;;
21243;SDS011;10780;50.942;4.028;2023-04-24T02:37:05;18.13;;;11.30;;
21243;SDS011;10780;50.942;4.028;2023-04-24T02:39:31;17.38;;;11.38;;
21243;SDS011;10780;50.942;4.028;2023-04-24T02:41:57;16.35;;;11.20;;
21243;SDS011;10780;50.942;4.028;2023-04-24T02:44:23;15.77;;;10.68;;
21243;SDS011;10780;50.942;4.028;2023-04-24T02:46:48;14.38;;;10.13;;
21243;SDS011;10780;50.942;4.028;2023-04-24T02:49:14;13.95;;;9.90;;
21243;SDS011;10780;50.942;4.028;2023-04-24T02:51:40;13.82;;;9.23;;
21243;SDS011;10780;50.942;4.028;2023-04-24T02:54:06;14.57;;;10.25;;
21243;SDS011;10780;50.942;4.028;2023-04-24T02:56:33;14.00;;;9.55;;
21243;SDS011;10780;50.942;4.028;2023-04-24T02:58:59;13.05;;;9.65;;
21243;SDS011;10780;50.942;4.028;2023-04-24T03:01:25;16.85;;;10.38;;
21243;SDS011;10780;50.942;4.028;2023-04-24T03:03:50;16.95;;;10.10;;
21243;SDS011;10780;50.942;4.028;2023-04-24T03:06:16;13.60;;;9.90;;
21243;SDS011;10780;50.942;4.028;2023-04-24T03:08:41;14.18;;;9.48;;
21243;SDS011;10780;50.942;4.028;2023-04-24T03:11:07;17.02;;;10.13;;
21243;SDS011;10780;50.942;4.028;2023-04-24T03:13:33;13.68;;;9.38;;
21243;SDS011;10780;50.942;4.028;2023-04-24T03:15:58;13.13;;;8.55;;
21243;SDS011;10780;50.942;4.028;2023-04-24T03:18:24;13.65;;;9.80;;
21243;SDS011;10780;50.942;4.028;2023-04-24T03:20:50;14.70;;;9.25;;
21243;SDS011;10780;50.942;4.028;2023-04-24T03:23:16;14.48;;;9.38;;
21243;SDS011;10780;50.942;4.028;2023-04-24T03:25:41;12.02;;;8.18;;
21243;SDS011;10780;50.942;4.028;2023-04-24T03:28:08;13.82;;;9.48;;
21243;SDS011;10780;50.942;4.028;2023-04-24T03:30:33;12.48;;;9.13;;
21243;SDS011;10780;50.942;4.028;2023-04-24T03:32:59;12.80;;;8.25;;
21243;SDS011;10780;50.942;4.028;2023-04-24T03:35:25;12.88;;;8.60;;
21243;SDS011;10780;50.942;4.028;2023-04-24T03:37:51;14.55;;;8.40;;
21243;SDS011;10780;50.942;4.028;2023-04-24T03:40:17;12.02;;;8.07;;
21243;SDS011;10780;50.942;4.028;2023-04-24T03:42:42;12.50;;;8.23;;
21243;SDS011;10780;50.942;4.028;2023-04-24T03:45:08;13.15;;;8.80;;
21243;SDS011;10780;50.942;4.028;2023-04-24T03:47:34;16.67;;;9.85;;
21243;SDS011;10780;50.942;4.028;2023-04-24T03:50:00;13.13;;;8.52;;
21243;SDS011;10780;50.942;4.028;2023-04-24T03:52:26;12.45;;;8.55;;
21243;SDS011;10780;50.942;4.028;2023-04-24T03:54:51;12.52;;;8.43;;
21243;SDS011;10780;50.942;4.028;2023-04-24T03:57:17;16.92;;;7.85;;
21243;SDS011;10780;50.942;4.028;2023-04-24T03:59:42;12.05;;;8.32;;
21243;SDS011;10780;50.942;4.028;2023-04-24T04:02:08;11.18;;;7.75;;
21243;SDS011;10780;50.942;4.028;2023-04-24T04:04:34;9.52;;;7.45;;
21243;SDS011;10780;50.942;4.028;2023-04-24T04:06:59;12.10;;;8.38;;
21243;SDS011;10780;50.942;4.028;2023-04-24T04:09:27;15.15;;;8.98;;
21243;SDS011;10780;50.942;4.028;2023-04-24T04:11:53;13.13;;;8.63;;
21243;SDS011;10780;50.942;4.028;2023-04-24T04:14:22;17.83;;;10.27;;
21243;SDS011;10780;50.942;4.028;2023-04-24T04:16:48;15.88;;;9.82;;
21243;SDS011;10780;50.942;4.028;2023-04-24T04:19:14;18.52;;;11.27;;
21243;SDS011;10780;50.942;4.028;2023-04-24T04:21:40;21.33;;;11.85;;
21243;SDS011;10780;50.942;4.028;2023-04-24T04:24:05;23.17;;;13.18;;
21243;SDS011;10780;50.942;4.028;2023-04-24T04:26:32;24.33;;;13.18;;
21243;SDS011;10780;50.942;4.028;2023-04-24T04:28:58;23.30;;;13.48;;
21243;SDS011;10780;50.942;4.028;2023-04-24T04:31:25;26.67;;;13.60;;
21243;SDS011;10780;50.942;4.028;2023-04-24T04:33:51;24.45;;;13.40;;
21243;SDS011;10780;50.942;4.028;2023-04-24T04:36:17;23.20;;;14.40;;
21243;SDS011;10780;50.942;4.028;2023-04-24T04:38:42;23.08;;;13.68;;
21243;SDS011;10780;50.942;4.028;2023-04-24T04:41:09;29.60;;;14.60;;
21243;SDS011;10780;50.942;4.028;2023-04-24T04:43:35;29.20;;;15.10;;
21243;SDS011;10780;50.942;4.028;2023-04-24T04:46:01;28.20;;;14.48;;
21243;SDS011;10780;50.942;4.028;2023-04-24T04:48:28;26.75;;;14.40;;
21243;SDS011;10780;50.942;4.028;2023-04-24T04:50:56;25.42;;;14.00;;
21243;SDS011;10780;50.942;4.028;2023-04-24T04:53:22;24.30;;;13.43;;
21243;SDS011;10780;50.942;4.028;2023-04-24T04:55:47;25.50;;;15.60;;
21243;SDS011;10780;50.942;4.028;2023-04-24T04:58:13;21.02;;;14.57;;
21243;SDS011;10780;50.942;4.028;2023-04-24T05:00:39;26.15;;;14.18;;
21243;SDS011;10780;50.942;4.028;2023-04-24T05:03:04;24.70;;;14.65;;
21243;SDS011;10780;50.942;4.028;2023-04-24T05:05:31;25.02;;;14.73;;
21243;SDS011;10780;50.942;4.028;2023-04-24T05:07:56;30.55;;;13.05;;
21243;SDS011;10780;50.942;4.028;2023-04-24T05:10:22;25.10;;;14.98;;
21243;SDS011;10780;50.942;4.028;2023-04-24T05:12:47;20.77;;;13.23;;
21243;SDS011;10780;50.942;4.028;2023-04-24T05:15:14;25.52;;;13.02;;
21243;SDS011;10780;50.942;4.028;2023-04-24T05:17:40;24.52;;;13.38;;
21243;SDS011;10780;50.942;4.028;2023-04-24T05:20:06;22.10;;;12.88;;
21243;SDS011;10780;50.942;4.028;2023-04-24T05:22:32;24.67;;;14.45;;
21243;SDS011;10780;50.942;4.028;2023-04-24T05:24:57;19.67;;;11.63;;
21243;SDS011;10780;50.942;4.028;2023-04-24T05:27:24;19.50;;;12.65;;
21243;SDS011;10780;50.942;4.028;2023-04-24T05:29:49;27.85;;;14.35;;
21243;SDS011;10780;50.942;4.028;2023-04-24T05:32:16;24.63;;;14.50;;
21243;SDS011;10780;50.942;4.028;2023-04-24T05:34:41;21.83;;;12.95;;
21243;SDS011;10780;50.942;4.028;2023-04-24T05:37:08;24.08;;;14.40;;
21243;SDS011;10780;50.942;4.028;2023-04-24T05:39:35;25.33;;;13.23;;
21243;SDS011;10780;50.942;4.028;2023-04-24T05:42:01;25.20;;;14.27;;
21243;SDS011;10780;50.942;4.028;2023-04-24T05:44:28;24.08;;;13.73;;
21243;SDS011;10780;50.942;4.028;2023-04-24T05:46:53;23.75;;;12.48;;
21243;SDS011;10780;50.942;4.028;2023-04-24T05:49:20;24.00;;;13.68;;
21243;SDS011;10780;50.942;4.028;2023-04-24T05:51:46;21.92;;;13.13;;
21243;SDS011;10780;50.942;4.028;2023-04-24T05:54:12;23.95;;;13.38;;
21243;SDS011;10780;50.942;4.028;2023-04-24T05:56:38;25.10;;;13.93;;
21243;SDS011;10780;50.942;4.028;2023-04-24T05:59:04;26.00;;;13.27;;
21243;SDS011;10780;50.942;4.028;2023-04-24T06:01:30;24.40;;;14.65;;
21243;SDS011;10780;50.942;4.028;2023-04-24T06:03:56;28.88;;;15.23;;
21243;SDS011;10780;50.942;4.028;2023-04-24T06:06:23;25.60;;;15.85;;
21243;SDS011;10780;50.942;4.028;2023-04-24T06:08:49;25.30;;;14.00;;
21243;SDS011;10780;50.942;4.028;2023-04-24T06:11:14;27.67;;;15.85;;
21243;SDS011;10780;50.942;4.028;2023-04-24T06:13:40;29.00;;;15.88;;
21243;SDS011;10780;50.942;4.028;2023-04-24T06:16:06;29.08;;;15.20;;
21243;SDS011;10780;50.942;4.028;2023-04-24T06:18:32;25.85;;;15.63;;
21243;SDS011;10780;50.942;4.028;2023-04-24T06:20:58;32.80;;;16.63;;
21243;SDS011;10780;50.942;4.028;2023-04-24T06:23:24;31.67;;;16.92;;
21243;SDS011;10780;50.942;4.028;2023-04-24T06:26:08;30.20;;;17.63;;
21243;SDS011;10780;50.942;4.028;2023-04-24T06:29:09;27.50;;;15.80;;
21243;SDS011;10780;50.942;4.028;2023-04-24T06:31:36;28.52;;;15.85;;
21243;SDS011;10780;50.942;4.028;2023-04-24T06:34:02;30.17;;;17.40;;
21243;SDS011;10780;50.942;4.028;2023-04-24T06:36:29;35.40;;;17.63;;
21243;SDS011;10780;50.942;4.028;2023-04-24T06:38:56;31.73;;;15.95;;
21243;SDS011;10780;50.942;4.028;2023-04-24T06:41:22;31.15;;;17.67;;
21243;SDS011;10780;50.942;4.028;2023-04-24T06:43:48;30.85;;;16.58;;
21243;SDS011;10780;50.942;4.028;2023-04-24T06:46:16;28.75;;;16.00;;
21243;SDS011;10780;50.942;4.028;2023-04-24T06:48:42;27.95;;;15.77;;
21243;SDS011;10780;50.942;4.028;2023-04-24T06:51:08;29.85;;;16.88;;
21243;SDS011;10780;50.942;4.028;2023-04-24T06:53:34;30.65;;;17.20;;
21243;SDS011;10780;50.942;4.028;2023-04-24T06:56:00;27.63;;;15.90;;
21243;SDS011;10780;50.942;4.028;2023-04-24T06:58:26;29.55;;;16.13;;
21243;SDS011;10780;50.942;4.028;2023-04-24T07:00:51;33.15;;;15.40;;
21243;SDS011;10780;50.942;4.028;2023-04-24T07:03:17;24.58;;;13.13;;
21243;SDS011;10780;50.942;4.028;2023-04-24T07:05:43;24.63;;;13.60;;
21243;SDS011;10780;50.942;4.028;2023-04-24T07:08:08;23.25;;;12.85;;
21243;SDS011;10780;50.942;4.028;2023-04-24T07:10:36;24.17;;;14.73;;
21243;SDS011;10780;50.942;4.028;2023-04-24T07:13:01;24.58;;;13.48;;
21243;SDS011;10780;50.942;4.028;2023-04-24T07:15:27;25.27;;;14.40;;
21243;SDS011;10780;50.942;4.028;2023-04-24T07:17:53;26.90;;;15.18;;
21243;SDS011;10780;50.942;4.028;2023-04-24T07:20:18;25.83;;;13.82;;
21243;SDS011;10780;50.942;4.028;2023-04-24T07:22:44;26.00;;;15.40;;
21243;SDS011;10780;50.942;4.028;2023-04-24T07:25:10;27.02;;;14.35;;
21243;SDS011;10780;50.942;4.028;2023-04-24T07:27:35;29.65;;;14.85;;
21243;SDS011;10780;50.942;4.028;2023-04-24T07:30:02;27.67;;;13.68;;
21243;SDS011;10780;50.942;4.028;2023-04-24T07:32:29;26.13;;;13.35;;
21243;SDS011;10780;50.942;4.028;2023-04-24T07:34:55;24.00;;;13.35;;
21243;SDS011;10780;50.942;4.028;2023-04-24T07:37:20;19.10;;;13.00;;
21243;SDS011;10780;50.942;4.028;2023-04-24T07:39:46;17.83;;;12.10;;
21243;SDS011;10780;50.942;4.028;2023-04-24T07:42:12;20.83;;;10.00;;
21243;SDS011;10780;50.942;4.028;2023-04-24T07:44:38;19.85;;;11.02;;
21243;SDS011;10780;50.942;4.028;2023-04-24T07:47:03;19.63;;;10.55;;
21243;SDS011;10780;50.942;4.028;2023-04-24T07:49:29;17.85;;;10.48;;
21243;SDS011;10780;50.942;4.028;2023-04-24T07:51:55;21.20;;;10.55;;
21243;SDS011;10780;50.942;4.028;2023-04-24T07:54:20;19.35;;;10.20;;
21243;SDS011;10780;50.942;4.028;2023-04-24T07:56:46;21.52;;;10.48;;
21243;SDS011;10780;50.942;4.028;2023-04-24T07:59:12;20.55;;;11.43;;
21243;SDS011;10780;50.942;4.028;2023-04-24T08:01:37;17.27;;;9.90;;
21243;SDS011;10780;50.942;4.028;2023-04-24T08:04:03;16.30;;;10.50;;
21243;SDS011;10780;50.942;4.028;2023-04-24T08:06:29;20.17;;;10.07;;
21243;SDS011;10780;50.942;4.028;2023-04-24T08:08:58;17.75;;;9.65;;
21243;SDS011;10780;50.942;4.028;2023-04-24T08:11:25;20.60;;;9.30;;
21243;SDS011;10780;50.942;4.028;2023-04-24T08:13:51;18.75;;;8.82;;
21243;SDS011;10780;50.942;4.028;2023-04-24T08:16:18;15.45;;;9.32;;
21243;SDS011;10780;50.942;4.028;2023-04-24T08:18:44;18.30;;;8.55;;
21243;SDS011;10780;50.942;4.028;2023-04-24T08:21:11;24.25;;;10.18;;
21243;SDS011;10780;50.942;4.028;2023-04-24T08:23:42;17.60;;;9.45;;
21243;SDS011;10780;50.942;4.028;2023-04-24T08:26:08;16.65;;;8.35;;
21243;SDS011;10780;50.942;4.028;2023-04-24T08:28:34;13.93;;;8.15;;
21243;SDS011;10780;50.942;4.028;2023-04-24T08:31:00;16.85;;;8.05;;
21243;SDS011;10780;50.942;4.028;2023-04-24T08:33:26;13.73;;;8.15;;
21243;SDS011;10780;50.942;4.028;2023-04-24T08:35:52;15.05;;;8.13;;
21243;SDS011;10780;50.942;4.028;2023-04-24T08:38:18;12.90;;;7.53;;
21243;SDS011;10780;50.942;4.028;2023-04-24T08:40:45;13.93;;;7.00;;
21243;SDS011;10780;50.942;4.028;2023-04-24T08:43:14;11.68;;;6.13;;
21243;SDS011;10780;50.942;4.028;2023-04-24T08:45:40;10.90;;;6.63;;
21243;SDS011;10780;50.942;4.028;2023-04-24T08:48:07;13.25;;;5.40;;
21243;SDS011;10780;50.942;4.028;2023-04-24T08:50:34;14.35;;;6.10;;
21243;SDS011;10780;50.942;4.028;2023-04-24T08:53:01;7.82;;;5.38;;
21243;SDS011;10780;50.942;4.028;2023-04-24T08:55:26;11.15;;;5.35;;
21243;SDS011;10780;50.942;4.028;2023-04-24T08:57:57;12.48;;;6.13;;
21243;SDS011;10780;50.942;4.028;2023-04-24T09:00:23;12.45;;;6.00;;
21243;SDS011;10780;50.942;4.028;2023-04-24T09:02:49;10.77;;;5.60;;
21243;SDS011;10780;50.942;4.028;2023-04-24T09:05:18;12.20;;;5.45;;
21243;SDS011;10780;50.942;4.028;2023-04-24T09:07:49;14.57;;;6.18;;
21243;SDS011;10780;50.942;4.028;2023-04-24T09:10:18;12.60;;;5.63;;
21243;SDS011;10780;50.942;4.028;2023-04-24T09:12:46;12.93;;;6.07;;
21243;SDS011;10780;50.942;4.028;2023-04-24T09:15:14;11.18;;;5.07;;
21243;SDS011;10780;50.942;4.028;2023-04-24T09:17:40;11.23;;;5.72;;
21243;SDS011;10780;50.942;4.028;2023-04-24T09:20:06;8.20;;;4.72;;
21243;SDS011;10780;50.942;4.028;2023-04-24T09:22:32;7.75;;;5.28;;
21243;SDS011;10780;50.942;4.028;2023-04-24T09:25:03;8.38;;;4.63;;
21243;SDS011;10780;50.942;4.028;2023-04-24T09:27:31;7.90;;;4.65;;
21243;SDS011;10780;50.942;4.028;2023-04-24T09:29:57;8.48;;;4.93;;
21243;SDS011;10780;50.942;4.028;2023-04-24T09:32:24;9.77;;;5.15;;
21243;SDS011;10780;50.942;4.028;2023-04-24T09:35:04;9.70;;;4.88;;
21243;SDS011;10780;50.942;4.028;2023-04-24T09:37:37;7.65;;;4.88;;
21243;SDS011;10780;50.942;4.028;2023-04-24T09:40:08;7.32;;;4.57;;
21243;SDS011;10780;50.942;4.028;2023-04-24T09:42:36;7.43;;;5.13;;
21243;SDS011;10780;50.942;4.028;2023-04-24T09:45:02;8.82;;;4.90;;
21243;SDS011;10780;50.942;4.028;2023-04-24T09:47:35;6.57;;;4.88;;
21243;SDS011;10780;50.942;4.028;2023-04-24T09:50:08;10.05;;;5.07;;
21243;SDS011;10780;50.942;4.028;2023-04-24T09:52:35;7.05;;;5.03;;
21243;SDS011;10780;50.942;4.028;2023-04-24T09:55:00;6.80;;;5.50;;
21243;SDS011;10780;50.942;4.028;2023-04-24T09:57:26;8.32;;;5.75;;
21243;SDS011;10780;50.942;4.028;2023-04-24T09:59:53;10.23;;;5.32;;
21243;SDS011;10780;50.942;4.028;2023-04-24T10:02:19;8.45;;;5.60;;
21243;SDS011;10780;50.942;4.028;2023-04-24T10:04:54;10.73;;;5.43;;
21243;SDS011;10780;50.942;4.028;2023-04-24T10:07:21;12.52;;;5.97;;
21243;SDS011;10780;50.942;4.028;2023-04-24T10:09:47;8.27;;;5.35;;
21243;SDS011;10780;50.942;4.028;2023-04-24T10:12:13;10.48;;;5.63;;
21243;SDS011;10780;50.942;4.028;2023-04-24T10:14:40;13.38;;;6.78;;
21243;SDS011;10780;50.942;4.028;2023-04-24T10:17:06;8.38;;;5.47;;
21243;SDS011;10780;50.942;4.028;2023-04-24T10:19:33;8.43;;;5.45;;
21243;SDS011;10780;50.942;4.028;2023-04-24T10:22:00;7.68;;;5.32;;
21243;SDS011;10780;50.942;4.028;2023-04-24T10:24:27;7.82;;;5.28;;
21243;SDS011;10780;50.942;4.028;2023-04-24T10:26:54;7.45;;;5.30;;
21243;SDS011;10780;50.942;4.028;2023-04-24T10:29:21;7.50;;;5.47;;
21243;SDS011;10780;50.942;4.028;2023-04-24T10:31:48;7.63;;;5.30;;
21243;SDS011;10780;50.942;4.028;2023-04-24T10:34:15;6.95;;;4.43;;
21243;SDS011;10780;50.942;4.028;2023-04-24T10:36:45;6.00;;;5.05;;
21243;SDS011;10780;50.942;4.028;2023-04-24T10:39:14;7.80;;;5.30;;
21243;SDS011;10780;50.942;4.028;2023-04-24T10:41:41;9.10;;;5.10;;
21243;SDS011;10780;50.942;4.028;2023-04-24T10:44:11;10.10;;;5.85;;
21243;SDS011;10780;50.942;4.028;2023-04-24T10:46:39;8.15;;;6.43;;
21243;SDS011;10780;50.942;4.028;2023-04-24T10:49:10;10.25;;;5.97;;
21243;SDS011;10780;50.942;4.028;2023-04-24T10:51:48;10.77;;;6.00;;
21243;SDS011;10780;50.942;4.028;2023-04-24T10:54:22;10.90;;;5.68;;
21243;SDS011;10780;50.942;4.028;2023-04-24T10:59:43;9.60;;;6.05;;
21243;SDS011;10780;50.942;4.028;2023-04-24T11:02:16;10.20;;;5.50;;
21243;SDS011;10780;50.942;4.028;2023-04-24T11:04:43;10.85;;;6.60;;
21243;SDS011;10780;50.942;4.028;2023-04-24T11:07:11;8.63;;;6.15;;
21243;SDS011;10780;50.942;4.028;2023-04-24T11:09:38;13.38;;;6.43;;
21243;SDS011;10780;50.942;4.028;2023-04-24T11:12:11;12.75;;;6.72;;
21243;SDS011;10780;50.942;4.028;2023-04-24T11:17:32;7.80;;;5.88;;
21243;SDS011;10780;50.942;4.028;2023-04-24T11:20:10;10.55;;;5.75;;
21243;SDS011;10780;50.942;4.028;2023-04-24T11:22:37;8.85;;;6.15;;
21243;SDS011;10780;50.942;4.028;2023-04-24T11:25:08;7.75;;;5.55;;
21243;SDS011;10780;50.942;4.028;2023-04-24T11:27:43;10.60;;;5.50;;
21243;SDS011;10780;50.942;4.028;2023-04-24T11:30:17;13.35;;;5.97;;
21243;SDS011;10780;50.942;4.028;2023-04-24T11:32:47;14.13;;;6.25;;
21243;SDS011;10780;50.942;4.028;2023-04-24T11:37:49;8.95;;;6.70;;
21243;SDS011;10780;50.942;4.028;2023-04-24T11:40:17;11.82;;;6.85;;
21243;SDS011;10780;50.942;4.028;2023-04-24T11:42:48;9.20;;;5.63;;
21243;SDS011;10780;50.942;4.028;2023-04-24T11:45:22;9.05;;;6.97;;
21243;SDS011;10780;50.942;4.028;2023-04-24T11:47:49;13.82;;;7.05;;
21243;SDS011;10780;50.942;4.028;2023-04-24T11:50:17;12.98;;;7.05;;
21243;SDS011;10780;50.942;4.028;2023-04-24T11:52:45;10.07;;;7.05;;
21243;SDS011;10780;50.942;4.028;2023-04-24T11:57:59;10.20;;;5.93;;
21243;SDS011;10780;50.942;4.028;2023-04-24T12:00:27;10.68;;;6.68;;
21243;SDS011;10780;50.942;4.028;2023-04-24T12:05:29;11.05;;;6.75;;
21243;SDS011;10780;50.942;4.028;2023-04-24T12:07:56;8.93;;;6.18;;
21243;SDS011;10780;50.942;4.028;2023-04-24T12:10:26;8.25;;;5.50;;
21243;SDS011;10780;50.942;4.028;2023-04-24T12:12:54;6.85;;;5.80;;
21243;SDS011;10780;50.942;4.028;2023-04-24T12:15:22;8.95;;;5.22;;
21243;SDS011;10780;50.942;4.028;2023-04-24T12:17:50;9.77;;;5.70;;
21243;SDS011;10780;50.942;4.028;2023-04-24T12:20:17;7.63;;;5.15;;
21243;SDS011;10780;50.942;4.028;2023-04-24T12:22:50;7.80;;;5.20;;
21243;SDS011;10780;50.942;4.028;2023-04-24T12:25:16;8.32;;;4.90;;
21243;SDS011;10780;50.942;4.028;2023-04-24T12:27:43;7.45;;;5.25;;
21243;SDS011;10780;50.942;4.028;2023-04-24T12:30:14;8.43;;;4.90;;
21243;SDS011;10780;50.942;4.028;2023-04-24T12:32:44;8.43;;;5.07;;
21243;SDS011;10780;50.942;4.028;2023-04-24T12:35:12;5.75;;;5.07;;
21243;SDS011;10780;50.942;4.028;2023-04-24T12:37:41;10.38;;;4.93;;
21243;SDS011;10780;50.942;4.028;2023-04-24T12:40:11;9.80;;;4.90;;
21243;SDS011;10780;50.942;4.028;2023-04-24T12:42:42;6.32;;;4.13;;
21243;SDS011;10780;50.942;4.028;2023-04-24T12:45:15;7.22;;;4.18;;
21243;SDS011;10780;50.942;4.028;2023-04-24T12:47:42;9.00;;;4.00;;
21243;SDS011;10780;50.942;4.028;2023-04-24T12:50:10;7.00;;;4.10;;
21243;SDS011;10780;50.942;4.028;2023-04-24T12:52:40;9.63;;;4.35;;
21243;SDS011;10780;50.942;4.028;2023-04-24T12:55:07;6.57;;;3.60;;
21243;SDS011;10780;50.942;4.028;2023-04-24T12:57:34;6.13;;;3.90;;
21243;SDS011;10780;50.942;4.028;2023-04-24T13:00:01;4.60;;;3.35;;
21243;SDS011;10780;50.942;4.028;2023-04-24T13:02:29;5.35;;;3.40;;
21243;SDS011;10780;50.942;4.028;2023-04-24T13:04:59;6.22;;;4.07;;
21243;SDS011;10780;50.942;4.028;2023-04-24T13:07:26;5.80;;;3.33;;
21243;SDS011;10780;50.942;4.028;2023-04-24T13:09:52;5.28;;;3.75;;
21243;SDS011;10780;50.942;4.028;2023-04-24T13:12:19;6.38;;;3.30;;
21243;SDS011;10780;50.942;4.028;2023-04-24T13:14:45;3.60;;;2.88;;
21243;SDS011;10780;50.942;4.028;2023-04-24T13:17:12;6.28;;;2.72;;
21243;SDS011;10780;50.942;4.028;2023-04-24T13:19:41;3.47;;;2.60;;
21243;SDS011;10780;50.942;4.028;2023-04-24T13:22:11;4.63;;;2.90;;
21243;SDS011;10780;50.942;4.028;2023-04-24T13:24:37;4.05;;;2.90;;
21243;SDS011;10780;50.942;4.028;2023-04-24T13:27:05;3.33;;;3.03;;
21243;SDS011;10780;50.942;4.028;2023-04-24T13:29:32;4.93;;;2.80;;
21243;SDS011;10780;50.942;4.028;2023-04-24T13:31:57;5.25;;;3.10;;
21243;SDS011;10780;50.942;4.028;2023-04-24T13:34:24;3.45;;;2.30;;
21243;SDS011;10780;50.942;4.028;2023-04-24T13:36:51;3.45;;;2.58;;
21243;SDS011;10780;50.942;4.028;2023-04-24T13:39:21;5.78;;;2.97;;
21243;SDS011;10780;50.942;4.028;2023-04-24T13:41:47;5.20;;;3.00;;
21243;SDS011;10780;50.942;4.028;2023-04-24T13:44:13;4.43;;;2.50;;
21243;SDS011;10780;50.942;4.028;2023-04-24T13:46:44;5.85;;;2.80;;
21243;SDS011;10780;50.942;4.028;2023-04-24T13:49:12;4.65;;;2.50;;
21243;SDS011;10780;50.942;4.028;2023-04-24T13:51:38;5.43;;;2.72;;
21243;SDS011;10780;50.942;4.028;2023-04-24T13:54:05;3.35;;;2.90;;
21243;SDS011;10780;50.942;4.028;2023-04-24T13:56:31;4.85;;;3.13;;
21243;SDS011;10780;50.942;4.028;2023-04-24T13:58:56;5.07;;;2.70;;
21243;SDS011;10780;50.942;4.028;2023-04-24T14:01:22;3.55;;;2.83;;
21243;SDS011;10780;50.942;4.028;2023-04-24T14:03:50;2.35;;;1.90;;
21243;SDS011;10780;50.942;4.028;2023-04-24T14:06:19;3.72;;;2.35;;
21243;SDS011;10780;50.942;4.028;2023-04-24T14:08:45;3.47;;;2.47;;
21243;SDS011;10780;50.942;4.028;2023-04-24T14:11:12;3.58;;;2.40;;
21243;SDS011;10780;50.942;4.028;2023-04-24T14:13:40;3.50;;;2.40;;
21243;SDS011;10780;50.942;4.028;2023-04-24T14:16:06;3.90;;;2.10;;
21243;SDS011;10780;50.942;4.028;2023-04-24T14:18:32;2.40;;;2.10;;
21243;SDS011;10780;50.942;4.028;2023-04-24T14:20:59;3.47;;;2.05;;
21243;SDS011;10780;50.942;4.028;2023-04-24T14:23:26;3.92;;;1.90;;
21243;SDS011;10780;50.942;4.028;2023-04-24T14:25:53;3.28;;;2.25;;
21243;SDS011;10780;50.942;4.028;2023-04-24T14:28:19;3.30;;;1.70;;
21243;SDS011;10780;50.942;4.028;2023-04-24T14:30:46;2.67;;;1.55;;
21243;SDS011;10780;50.942;4.028;2023-04-24T14:33:12;3.92;;;1.75;;
21243;SDS011;10780;50.942;4.028;2023-04-24T14:35:38;9.52;;;2.10;;
21243;SDS011;10780;50.942;4.028;2023-04-24T14:38:05;4.75;;;1.73;;
21243;SDS011;10780;50.942;4.028;2023-04-24T14:40:31;6.18;;;2.20;;
21243;SDS011;10780;50.942;4.028;2023-04-24T14:42:57;2.17;;;1.60;;
21243;SDS011;10780;50.942;4.028;2023-04-24T14:45:23;4.03;;;1.67;;